sensor_id;sensor_type;location;lat;lon;timestamp;P1;durP1;ratioP1;P2;durP2;ratioP2
76296;SDS011;65104;52.994;6.552;2024-01-30T00:02:02;16.35;;;8.65;;
76296;SDS011;65104;52.994;6.552;2024-01-30T00:04:29;12.50;;;8.15;;
76296;SDS011;65104;52.994;6.552;2024-01-30T00:06:57;17.73;;;9.15;;
76296;SDS011;65104;52.994;6.552;2024-01-30T00:09:23;13.27;;;8.02;;
76296;SDS011;65104;52.994;6.552;2024-01-30T00:11:50;14.68;;;8.90;;
76296;SDS011;65104;52.994;6.552;2024-01-30T00:14:17;17.23;;;8.55;;
76296;SDS011;65104;52.994;6.552;2024-01-30T00:16:44;18.73;;;10.15;;
76296;SDS011;65104;52.994;6.552;2024-01-30T00:19:10;15.57;;;9.02;;
76296;SDS011;65104;52.994;6.552;2024-01-30T00:21:37;16.95;;;9.43;;
76296;SDS011;65104;52.994;6.552;2024-01-30T00:24:05;20.10;;;10.95;;
76296;SDS011;65104;52.994;6.552;2024-01-30T00:26:32;13.98;;;9.48;;
76296;SDS011;65104;52.994;6.552;2024-01-30T00:28:58;14.63;;;9.40;;
76296;SDS011;65104;52.994;6.552;2024-01-30T00:31:25;16.52;;;9.93;;
76296;SDS011;65104;52.994;6.552;2024-01-30T00:33:52;15.65;;;9.32;;
76296;SDS011;65104;52.994;6.552;2024-01-30T00:36:18;15.13;;;9.75;;
76296;SDS011;65104;52.994;6.552;2024-01-30T00:38:45;15.73;;;9.50;;
76296;SDS011;65104;52.994;6.552;2024-01-30T00:41:14;14.88;;;7.93;;
76296;SDS011;65104;52.994;6.552;2024-01-30T00:43:40;15.85;;;9.05;;
76296;SDS011;65104;52.994;6.552;2024-01-30T00:46:07;18.52;;;9.55;;
76296;SDS011;65104;52.994;6.552;2024-01-30T00:48:34;18.40;;;9.25;;
76296;SDS011;65104;52.994;6.552;2024-01-30T00:51:00;14.45;;;8.18;;
76296;SDS011;65104;52.994;6.552;2024-01-30T00:53:27;14.25;;;8.50;;
76296;SDS011;65104;52.994;6.552;2024-01-30T00:55:53;18.20;;;9.65;;
76296;SDS011;65104;52.994;6.552;2024-01-30T00:58:21;19.67;;;9.98;;
76296;SDS011;65104;52.994;6.552;2024-01-30T01:00:48;13.98;;;9.20;;
76296;SDS011;65104;52.994;6.552;2024-01-30T01:03:15;15.25;;;9.30;;
76296;SDS011;65104;52.994;6.552;2024-01-30T01:05:42;15.85;;;9.25;;
76296;SDS011;65104;52.994;6.552;2024-01-30T01:08:09;15.75;;;9.43;;
76296;SDS011;65104;52.994;6.552;2024-01-30T01:10:35;18.73;;;10.77;;
76296;SDS011;65104;52.994;6.552;2024-01-30T01:13:02;18.48;;;9.73;;
76296;SDS011;65104;52.994;6.552;2024-01-30T01:15:30;16.63;;;8.85;;
76296;SDS011;65104;52.994;6.552;2024-01-30T01:17:57;17.08;;;9.43;;
76296;SDS011;65104;52.994;6.552;2024-01-30T01:20:24;19.58;;;10.55;;
76296;SDS011;65104;52.994;6.552;2024-01-30T01:22:50;15.90;;;9.18;;
76296;SDS011;65104;52.994;6.552;2024-01-30T01:25:17;16.05;;;9.55;;
76296;SDS011;65104;52.994;6.552;2024-01-30T01:27:44;17.27;;;10.10;;
76296;SDS011;65104;52.994;6.552;2024-01-30T01:30:16;15.30;;;8.48;;
76296;SDS011;65104;52.994;6.552;2024-01-30T01:32:48;16.08;;;9.35;;
76296;SDS011;65104;52.994;6.552;2024-01-30T01:35:19;19.27;;;9.18;;
76296;SDS011;65104;52.994;6.552;2024-01-30T01:40:19;11.88;;;7.90;;
76296;SDS011;65104;52.994;6.552;2024-01-30T01:42:46;15.48;;;7.97;;
76296;SDS011;65104;52.994;6.552;2024-01-30T01:45:13;16.33;;;8.35;;
76296;SDS011;65104;52.994;6.552;2024-01-30T01:47:40;14.15;;;8.93;;
76296;SDS011;65104;52.994;6.552;2024-01-30T01:50:09;14.90;;;9.00;;
76296;SDS011;65104;52.994;6.552;2024-01-30T01:52:35;16.67;;;8.35;;
76296;SDS011;65104;52.994;6.552;2024-01-30T01:55:03;15.07;;;8.98;;
76296;SDS011;65104;52.994;6.552;2024-01-30T01:57:33;18.98;;;10.15;;
76296;SDS011;65104;52.994;6.552;2024-01-30T02:00:00;17.23;;;9.77;;
76296;SDS011;65104;52.994;6.552;2024-01-30T02:02:27;16.35;;;9.10;;
76296;SDS011;65104;52.994;6.552;2024-01-30T02:04:57;18.73;;;10.07;;
76296;SDS011;65104;52.994;6.552;2024-01-30T02:07:25;15.35;;;9.35;;
76296;SDS011;65104;52.994;6.552;2024-01-30T02:09:51;15.13;;;8.10;;
76296;SDS011;65104;52.994;6.552;2024-01-30T02:12:18;13.27;;;9.40;;
76296;SDS011;65104;52.994;6.552;2024-01-30T02:14:44;19.67;;;8.93;;
76296;SDS011;65104;52.994;6.552;2024-01-30T02:17:11;14.02;;;8.38;;
76296;SDS011;65104;52.994;6.552;2024-01-30T02:19:38;13.48;;;8.18;;
76296;SDS011;65104;52.994;6.552;2024-01-30T02:22:06;16.63;;;9.15;;
76296;SDS011;65104;52.994;6.552;2024-01-30T02:24:33;15.95;;;9.27;;
76296;SDS011;65104;52.994;6.552;2024-01-30T02:27:00;18.13;;;8.23;;
76296;SDS011;65104;52.994;6.552;2024-01-30T02:29:27;15.85;;;8.88;;
76296;SDS011;65104;52.994;6.552;2024-01-30T02:31:53;15.32;;;8.63;;
76296;SDS011;65104;52.994;6.552;2024-01-30T02:34:20;14.82;;;8.43;;
76296;SDS011;65104;52.994;6.552;2024-01-30T02:36:46;19.25;;;9.10;;
76296;SDS011;65104;52.994;6.552;2024-01-30T02:39:14;13.02;;;8.48;;
76296;SDS011;65104;52.994;6.552;2024-01-30T02:41:41;15.50;;;8.48;;
76296;SDS011;65104;52.994;6.552;2024-01-30T02:44:08;14.13;;;8.45;;
76296;SDS011;65104;52.994;6.552;2024-01-30T02:46:34;14.93;;;8.48;;
76296;SDS011;65104;52.994;6.552;2024-01-30T02:49:01;13.50;;;8.07;;
76296;SDS011;65104;52.994;6.552;2024-01-30T02:51:28;15.35;;;8.45;;
76296;SDS011;65104;52.994;6.552;2024-01-30T02:53:54;10.98;;;8.27;;
76296;SDS011;65104;52.994;6.552;2024-01-30T02:56:22;14.95;;;7.93;;
76296;SDS011;65104;52.994;6.552;2024-01-30T02:58:49;16.85;;;9.00;;
76296;SDS011;65104;52.994;6.552;2024-01-30T03:01:15;16.63;;;8.90;;
76296;SDS011;65104;52.994;6.552;2024-01-30T03:03:42;17.70;;;8.50;;
76296;SDS011;65104;52.994;6.552;2024-01-30T03:06:09;12.65;;;8.73;;
76296;SDS011;65104;52.994;6.552;2024-01-30T03:08:35;15.77;;;8.35;;
76296;SDS011;65104;52.994;6.552;2024-01-30T03:11:02;17.35;;;8.73;;
76296;SDS011;65104;52.994;6.552;2024-01-30T03:13:30;14.07;;;8.07;;
76296;SDS011;65104;52.994;6.552;2024-01-30T03:15:57;16.63;;;7.35;;
76296;SDS011;65104;52.994;6.552;2024-01-30T03:18:23;14.43;;;8.65;;
76296;SDS011;65104;52.994;6.552;2024-01-30T03:20:50;13.85;;;8.38;;
76296;SDS011;65104;52.994;6.552;2024-01-30T03:23:17;12.25;;;7.80;;
76296;SDS011;65104;52.994;6.552;2024-01-30T03:25:43;14.18;;;7.82;;
76296;SDS011;65104;52.994;6.552;2024-01-30T03:28:10;13.98;;;7.53;;
76296;SDS011;65104;52.994;6.552;2024-01-30T03:30:38;13.57;;;8.70;;
76296;SDS011;65104;52.994;6.552;2024-01-30T03:35:32;15.68;;;8.50;;
76296;SDS011;65104;52.994;6.552;2024-01-30T03:37:59;18.17;;;7.68;;
76296;SDS011;65104;52.994;6.552;2024-01-30T03:40:26;14.43;;;7.90;;
76296;SDS011;65104;52.994;6.552;2024-01-30T03:42:52;12.20;;;8.43;;
76296;SDS011;65104;52.994;6.552;2024-01-30T03:45:19;18.83;;;8.60;;
76296;SDS011;65104;52.994;6.552;2024-01-30T03:47:47;14.55;;;8.02;;
76296;SDS011;65104;52.994;6.552;2024-01-30T03:50:13;16.05;;;8.70;;
76296;SDS011;65104;52.994;6.552;2024-01-30T03:52:40;18.67;;;7.43;;
76296;SDS011;65104;52.994;6.552;2024-01-30T03:55:07;12.75;;;7.20;;
76296;SDS011;65104;52.994;6.552;2024-01-30T03:57:34;14.20;;;8.45;;
76296;SDS011;65104;52.994;6.552;2024-01-30T04:00:00;12.07;;;7.65;;
76296;SDS011;65104;52.994;6.552;2024-01-30T04:02:30;13.48;;;7.85;;
76296;SDS011;65104;52.994;6.552;2024-01-30T04:04:58;13.80;;;8.27;;
76296;SDS011;65104;52.994;6.552;2024-01-30T04:07:24;14.02;;;8.25;;
76296;SDS011;65104;52.994;6.552;2024-01-30T04:09:51;13.82;;;7.78;;
76296;SDS011;65104;52.994;6.552;2024-01-30T04:12:18;13.35;;;8.07;;
76296;SDS011;65104;52.994;6.552;2024-01-30T04:14:44;13.60;;;7.55;;
76296;SDS011;65104;52.994;6.552;2024-01-30T04:17:11;12.70;;;8.15;;
76296;SDS011;65104;52.994;6.552;2024-01-30T04:19:38;13.63;;;8.07;;
76296;SDS011;65104;52.994;6.552;2024-01-30T04:22:06;16.30;;;8.55;;
76296;SDS011;65104;52.994;6.552;2024-01-30T04:24:33;13.43;;;7.03;;
76296;SDS011;65104;52.994;6.552;2024-01-30T04:26:59;15.88;;;9.05;;
76296;SDS011;65104;52.994;6.552;2024-01-30T04:29:26;9.93;;;6.55;;
76296;SDS011;65104;52.994;6.552;2024-01-30T04:31:52;12.00;;;7.75;;
76296;SDS011;65104;52.994;6.552;2024-01-30T04:34:19;12.60;;;6.53;;
76296;SDS011;65104;52.994;6.552;2024-01-30T04:36:46;11.35;;;7.80;;
76296;SDS011;65104;52.994;6.552;2024-01-30T04:39:14;10.40;;;6.70;;
76296;SDS011;65104;52.994;6.552;2024-01-30T04:41:40;12.18;;;7.18;;
76296;SDS011;65104;52.994;6.552;2024-01-30T04:44:07;12.10;;;7.65;;
76296;SDS011;65104;52.994;6.552;2024-01-30T04:46:33;17.58;;;7.85;;
76296;SDS011;65104;52.994;6.552;2024-01-30T04:49:00;14.35;;;8.60;;
76296;SDS011;65104;52.994;6.552;2024-01-30T04:53:55;10.80;;;6.80;;
76296;SDS011;65104;52.994;6.552;2024-01-30T04:56:22;11.48;;;6.50;;
76296;SDS011;65104;52.994;6.552;2024-01-30T04:58:49;13.13;;;7.45;;
76296;SDS011;65104;52.994;6.552;2024-01-30T05:01:16;12.15;;;7.40;;
76296;SDS011;65104;52.994;6.552;2024-01-30T05:03:43;13.15;;;7.30;;
76296;SDS011;65104;52.994;6.552;2024-01-30T05:06:09;10.63;;;7.20;;
76296;SDS011;65104;52.994;6.552;2024-01-30T05:08:36;16.02;;;7.72;;
76296;SDS011;65104;52.994;6.552;2024-01-30T05:11:03;13.02;;;6.75;;
76296;SDS011;65104;52.994;6.552;2024-01-30T05:13:32;11.45;;;7.28;;
76296;SDS011;65104;52.994;6.552;2024-01-30T05:15:59;13.77;;;6.57;;
76296;SDS011;65104;52.994;6.552;2024-01-30T05:18:28;12.35;;;7.55;;
76296;SDS011;65104;52.994;6.552;2024-01-30T05:20:54;11.93;;;7.90;;
76296;SDS011;65104;52.994;6.552;2024-01-30T05:23:21;11.82;;;6.90;;
76296;SDS011;65104;52.994;6.552;2024-01-30T05:25:48;9.82;;;6.72;;
76296;SDS011;65104;52.994;6.552;2024-01-30T05:28:14;9.57;;;6.80;;
76296;SDS011;65104;52.994;6.552;2024-01-30T05:30:42;11.70;;;7.65;;
76296;SDS011;65104;52.994;6.552;2024-01-30T05:33:09;12.65;;;6.85;;
76296;SDS011;65104;52.994;6.552;2024-01-30T05:35:37;12.07;;;6.90;;
76296;SDS011;65104;52.994;6.552;2024-01-30T05:38:03;14.90;;;7.30;;
76296;SDS011;65104;52.994;6.552;2024-01-30T05:40:32;11.93;;;6.70;;
76296;SDS011;65104;52.994;6.552;2024-01-30T05:42:58;15.75;;;7.38;;
76296;SDS011;65104;52.994;6.552;2024-01-30T05:45:27;12.13;;;6.28;;
76296;SDS011;65104;52.994;6.552;2024-01-30T05:47:55;10.70;;;6.63;;
76296;SDS011;65104;52.994;6.552;2024-01-30T05:50:22;10.25;;;7.05;;
76296;SDS011;65104;52.994;6.552;2024-01-30T05:52:50;13.40;;;7.68;;
76296;SDS011;65104;52.994;6.552;2024-01-30T05:55:17;11.15;;;6.85;;
76296;SDS011;65104;52.994;6.552;2024-01-30T05:57:43;11.13;;;6.75;;
76296;SDS011;65104;52.994;6.552;2024-01-30T06:00:10;11.23;;;6.47;;
76296;SDS011;65104;52.994;6.552;2024-01-30T06:02:37;10.52;;;6.38;;
76296;SDS011;65104;52.994;6.552;2024-01-30T06:05:06;9.68;;;6.28;;
76296;SDS011;65104;52.994;6.552;2024-01-30T06:07:33;12.55;;;5.88;;
76296;SDS011;65104;52.994;6.552;2024-01-30T06:09:59;10.63;;;6.95;;
76296;SDS011;65104;52.994;6.552;2024-01-30T06:12:26;11.88;;;6.18;;
76296;SDS011;65104;52.994;6.552;2024-01-30T06:14:53;10.95;;;6.05;;
76296;SDS011;65104;52.994;6.552;2024-01-30T06:17:21;11.98;;;6.53;;
76296;SDS011;65104;52.994;6.552;2024-01-30T06:19:48;14.52;;;6.78;;
76296;SDS011;65104;52.994;6.552;2024-01-30T06:22:16;14.18;;;7.35;;
76296;SDS011;65104;52.994;6.552;2024-01-30T06:24:43;10.00;;;6.80;;
76296;SDS011;65104;52.994;6.552;2024-01-30T06:27:13;15.23;;;7.50;;
76296;SDS011;65104;52.994;6.552;2024-01-30T06:29:39;8.70;;;5.65;;
76296;SDS011;65104;52.994;6.552;2024-01-30T06:32:06;14.40;;;6.72;;
76296;SDS011;65104;52.994;6.552;2024-01-30T06:34:33;13.02;;;6.70;;
76296;SDS011;65104;52.994;6.552;2024-01-30T06:36:59;10.35;;;6.75;;
76296;SDS011;65104;52.994;6.552;2024-01-30T06:39:27;9.63;;;5.88;;
76296;SDS011;65104;52.994;6.552;2024-01-30T06:41:54;11.32;;;6.13;;
76296;SDS011;65104;52.994;6.552;2024-01-30T06:44:21;13.63;;;6.78;;
76296;SDS011;65104;52.994;6.552;2024-01-30T06:46:47;13.23;;;6.43;;
76296;SDS011;65104;52.994;6.552;2024-01-30T06:49:14;9.10;;;6.03;;
76296;SDS011;65104;52.994;6.552;2024-01-30T06:51:41;11.77;;;6.72;;
76296;SDS011;65104;52.994;6.552;2024-01-30T06:54:08;10.48;;;6.38;;
76296;SDS011;65104;52.994;6.552;2024-01-30T06:56:36;13.02;;;6.90;;
76296;SDS011;65104;52.994;6.552;2024-01-30T06:59:02;13.45;;;6.47;;
76296;SDS011;65104;52.994;6.552;2024-01-30T07:01:30;12.07;;;6.53;;
76296;SDS011;65104;52.994;6.552;2024-01-30T07:03:57;10.93;;;6.97;;
76296;SDS011;65104;52.994;6.552;2024-01-30T07:06:24;9.45;;;6.38;;
76296;SDS011;65104;52.994;6.552;2024-01-30T07:08:51;10.18;;;5.85;;
76296;SDS011;65104;52.994;6.552;2024-01-30T07:11:20;12.02;;;6.68;;
76296;SDS011;65104;52.994;6.552;2024-01-30T07:13:50;11.00;;;6.10;;
76296;SDS011;65104;52.994;6.552;2024-01-30T07:16:17;8.60;;;5.40;;
76296;SDS011;65104;52.994;6.552;2024-01-30T07:18:43;10.05;;;6.35;;
76296;SDS011;65104;52.994;6.552;2024-01-30T07:21:10;13.63;;;6.78;;
76296;SDS011;65104;52.994;6.552;2024-01-30T07:23:37;10.05;;;6.28;;
76296;SDS011;65104;52.994;6.552;2024-01-30T07:26:04;11.18;;;7.32;;
76296;SDS011;65104;52.994;6.552;2024-01-30T07:28:31;9.57;;;5.80;;
76296;SDS011;65104;52.994;6.552;2024-01-30T07:30:59;10.82;;;6.45;;
76296;SDS011;65104;52.994;6.552;2024-01-30T07:33:26;12.52;;;6.22;;
76296;SDS011;65104;52.994;6.552;2024-01-30T07:35:53;11.25;;;6.15;;
76296;SDS011;65104;52.994;6.552;2024-01-30T07:38:19;9.40;;;6.35;;
76296;SDS011;65104;52.994;6.552;2024-01-30T07:40:46;9.88;;;5.93;;
76296;SDS011;65104;52.994;6.552;2024-01-30T07:43:13;8.75;;;5.35;;
76296;SDS011;65104;52.994;6.552;2024-01-30T07:45:39;11.20;;;6.53;;
76296;SDS011;65104;52.994;6.552;2024-01-30T07:48:07;11.02;;;7.15;;
76296;SDS011;65104;52.994;6.552;2024-01-30T07:50:34;11.57;;;6.43;;
76296;SDS011;65104;52.994;6.552;2024-01-30T07:53:01;12.88;;;6.72;;
76296;SDS011;65104;52.994;6.552;2024-01-30T07:55:28;10.90;;;6.18;;
76296;SDS011;65104;52.994;6.552;2024-01-30T07:57:56;10.43;;;5.78;;
76296;SDS011;65104;52.994;6.552;2024-01-30T08:00:23;11.57;;;6.70;;
76296;SDS011;65104;52.994;6.552;2024-01-30T08:02:50;10.55;;;5.85;;
76296;SDS011;65104;52.994;6.552;2024-01-30T08:05:20;9.98;;;5.65;;
76296;SDS011;65104;52.994;6.552;2024-01-30T08:07:47;14.25;;;6.32;;
76296;SDS011;65104;52.994;6.552;2024-01-30T08:10:14;10.52;;;6.10;;
76296;SDS011;65104;52.994;6.552;2024-01-30T08:12:43;12.02;;;6.65;;
76296;SDS011;65104;52.994;6.552;2024-01-30T08:15:10;10.77;;;5.78;;
76296;SDS011;65104;52.994;6.552;2024-01-30T08:17:38;9.85;;;6.55;;
76296;SDS011;65104;52.994;6.552;2024-01-30T08:20:05;12.23;;;7.32;;
76296;SDS011;65104;52.994;6.552;2024-01-30T08:22:34;9.18;;;5.65;;
76296;SDS011;65104;52.994;6.552;2024-01-30T08:25:01;10.27;;;6.03;;
76296;SDS011;65104;52.994;6.552;2024-01-30T08:27:27;11.20;;;5.95;;
76296;SDS011;65104;52.994;6.552;2024-01-30T08:29:54;13.15;;;5.50;;
76296;SDS011;65104;52.994;6.552;2024-01-30T08:32:21;11.18;;;5.55;;
76296;SDS011;65104;52.994;6.552;2024-01-30T08:34:47;14.18;;;6.63;;
76296;SDS011;65104;52.994;6.552;2024-01-30T08:37:14;9.50;;;5.53;;
76296;SDS011;65104;52.994;6.552;2024-01-30T08:39:43;11.32;;;6.07;;
76296;SDS011;65104;52.994;6.552;2024-01-30T08:42:09;11.10;;;5.97;;
76296;SDS011;65104;52.994;6.552;2024-01-30T08:44:36;9.85;;;5.57;;
76296;SDS011;65104;52.994;6.552;2024-01-30T08:47:03;10.23;;;5.57;;
76296;SDS011;65104;52.994;6.552;2024-01-30T08:49:31;10.00;;;5.70;;
76296;SDS011;65104;52.994;6.552;2024-01-30T08:51:58;11.23;;;5.78;;
76296;SDS011;65104;52.994;6.552;2024-01-30T08:54:24;10.77;;;5.43;;
76296;SDS011;65104;52.994;6.552;2024-01-30T08:56:52;11.05;;;5.43;;
76296;SDS011;65104;52.994;6.552;2024-01-30T08:59:21;11.23;;;5.45;;
76296;SDS011;65104;52.994;6.552;2024-01-30T09:01:47;10.65;;;6.07;;
76296;SDS011;65104;52.994;6.552;2024-01-30T09:04:14;10.95;;;5.93;;
76296;SDS011;65104;52.994;6.552;2024-01-30T09:06:41;10.10;;;6.22;;
76296;SDS011;65104;52.994;6.552;2024-01-30T09:09:07;7.63;;;5.22;;
76296;SDS011;65104;52.994;6.552;2024-01-30T09:11:34;9.63;;;5.43;;
76296;SDS011;65104;52.994;6.552;2024-01-30T09:14:03;8.55;;;5.72;;
76296;SDS011;65104;52.994;6.552;2024-01-30T09:16:29;9.25;;;5.70;;
76296;SDS011;65104;52.994;6.552;2024-01-30T09:18:56;13.02;;;6.45;;
76296;SDS011;65104;52.994;6.552;2024-01-30T09:21:22;9.43;;;5.50;;
76296;SDS011;65104;52.994;6.552;2024-01-30T09:23:49;7.75;;;5.38;;
76296;SDS011;65104;52.994;6.552;2024-01-30T09:26:16;10.77;;;5.80;;
76296;SDS011;65104;52.994;6.552;2024-01-30T09:28:42;10.82;;;5.93;;
76296;SDS011;65104;52.994;6.552;2024-01-30T09:31:11;8.25;;;4.70;;
76296;SDS011;65104;52.994;6.552;2024-01-30T09:33:38;7.93;;;5.20;;
76296;SDS011;65104;52.994;6.552;2024-01-30T09:36:05;7.85;;;5.88;;
76296;SDS011;65104;52.994;6.552;2024-01-30T09:40:59;12.73;;;4.95;;
76296;SDS011;65104;52.994;6.552;2024-01-30T09:43:35;10.52;;;5.65;;
76296;SDS011;65104;52.994;6.552;2024-01-30T09:46:03;10.77;;;6.18;;
76296;SDS011;65104;52.994;6.552;2024-01-30T09:48:33;9.98;;;5.40;;
76296;SDS011;65104;52.994;6.552;2024-01-30T09:51:00;11.45;;;5.68;;
76296;SDS011;65104;52.994;6.552;2024-01-30T09:53:28;10.93;;;5.38;;
76296;SDS011;65104;52.994;6.552;2024-01-30T09:55:54;10.90;;;5.70;;
76296;SDS011;65104;52.994;6.552;2024-01-30T09:58:22;12.13;;;5.47;;
76296;SDS011;65104;52.994;6.552;2024-01-30T10:00:48;8.38;;;5.18;;
76296;SDS011;65104;52.994;6.552;2024-01-30T10:03:15;11.32;;;5.60;;
76296;SDS011;65104;52.994;6.552;2024-01-30T10:05:45;8.18;;;5.88;;
76296;SDS011;65104;52.994;6.552;2024-01-30T10:08:16;11.43;;;5.53;;
76296;SDS011;65104;52.994;6.552;2024-01-30T10:10:45;9.15;;;5.32;;
76296;SDS011;65104;52.994;6.552;2024-01-30T10:13:12;8.38;;;6.03;;
76296;SDS011;65104;52.994;6.552;2024-01-30T10:15:39;9.07;;;5.60;;
76296;SDS011;65104;52.994;6.552;2024-01-30T10:18:05;10.27;;;5.57;;
76296;SDS011;65104;52.994;6.552;2024-01-30T10:20:32;9.20;;;5.57;;
76296;SDS011;65104;52.994;6.552;2024-01-30T10:23:01;9.73;;;5.55;;
76296;SDS011;65104;52.994;6.552;2024-01-30T10:25:28;10.02;;;5.32;;
76296;SDS011;65104;52.994;6.552;2024-01-30T10:27:56;11.20;;;6.22;;
76296;SDS011;65104;52.994;6.552;2024-01-30T10:30:23;11.18;;;5.45;;
76296;SDS011;65104;52.994;6.552;2024-01-30T10:32:50;12.77;;;5.93;;
76296;SDS011;65104;52.994;6.552;2024-01-30T10:35:17;10.55;;;5.38;;
76296;SDS011;65104;52.994;6.552;2024-01-30T10:37:44;9.88;;;5.63;;
76296;SDS011;65104;52.994;6.552;2024-01-30T10:40:15;9.93;;;5.53;;
76296;SDS011;65104;52.994;6.552;2024-01-30T10:42:42;9.57;;;5.63;;
76296;SDS011;65104;52.994;6.552;2024-01-30T10:45:10;12.95;;;5.60;;
76296;SDS011;65104;52.994;6.552;2024-01-30T10:47:39;10.25;;;6.47;;
76296;SDS011;65104;52.994;6.552;2024-01-30T10:50:07;9.77;;;5.15;;
76296;SDS011;65104;52.994;6.552;2024-01-30T10:52:35;13.68;;;6.13;;
76296;SDS011;65104;52.994;6.552;2024-01-30T10:55:03;11.10;;;6.57;;
76296;SDS011;65104;52.994;6.552;2024-01-30T10:57:32;10.77;;;6.38;;
76296;SDS011;65104;52.994;6.552;2024-01-30T11:00:00;14.60;;;5.88;;
76296;SDS011;65104;52.994;6.552;2024-01-30T11:02:30;12.07;;;6.20;;
76296;SDS011;65104;52.994;6.552;2024-01-30T11:04:59;12.85;;;6.32;;
76296;SDS011;65104;52.994;6.552;2024-01-30T11:07:26;12.98;;;6.07;;
76296;SDS011;65104;52.994;6.552;2024-01-30T11:09:59;9.90;;;5.03;;
76296;SDS011;65104;52.994;6.552;2024-01-30T11:12:27;11.43;;;6.15;;
76296;SDS011;65104;52.994;6.552;2024-01-30T11:15:06;11.45;;;6.88;;
76296;SDS011;65104;52.994;6.552;2024-01-30T11:17:43;13.90;;;6.15;;
76296;SDS011;65104;52.994;6.552;2024-01-30T11:20:11;10.98;;;6.25;;
76296;SDS011;65104;52.994;6.552;2024-01-30T11:22:40;14.15;;;6.45;;
76296;SDS011;65104;52.994;6.552;2024-01-30T11:25:11;10.95;;;6.82;;
76296;SDS011;65104;52.994;6.552;2024-01-30T11:27:39;11.90;;;6.70;;
76296;SDS011;65104;52.994;6.552;2024-01-30T11:30:08;11.20;;;6.28;;
76296;SDS011;65104;52.994;6.552;2024-01-30T11:32:34;10.93;;;5.88;;
76296;SDS011;65104;52.994;6.552;2024-01-30T11:35:03;10.90;;;6.60;;
76296;SDS011;65104;52.994;6.552;2024-01-30T11:37:31;12.35;;;6.65;;
76296;SDS011;65104;52.994;6.552;2024-01-30T11:40:00;13.05;;;7.38;;
76296;SDS011;65104;52.994;6.552;2024-01-30T11:42:27;11.43;;;6.15;;
76296;SDS011;65104;52.994;6.552;2024-01-30T11:44:56;11.32;;;6.95;;
76296;SDS011;65104;52.994;6.552;2024-01-30T11:50:46;11.07;;;7.13;;
76296;SDS011;65104;52.994;6.552;2024-01-30T11:53:17;13.93;;;6.60;;
76296;SDS011;65104;52.994;6.552;2024-01-30T11:55:49;11.32;;;6.88;;
76296;SDS011;65104;52.994;6.552;2024-01-30T11:58:16;16.20;;;7.30;;
76296;SDS011;65104;52.994;6.552;2024-01-30T12:00:42;15.98;;;7.00;;
76296;SDS011;65104;52.994;6.552;2024-01-30T12:03:19;15.60;;;5.72;;
76296;SDS011;65104;52.994;6.552;2024-01-30T12:05:46;12.07;;;5.95;;
76296;SDS011;65104;52.994;6.552;2024-01-30T12:08:14;8.82;;;4.90;;
76296;SDS011;65104;52.994;6.552;2024-01-30T12:10:41;9.60;;;5.15;;
76296;SDS011;65104;52.994;6.552;2024-01-30T12:13:08;6.55;;;3.60;;
76296;SDS011;65104;52.994;6.552;2024-01-30T12:15:35;8.80;;;3.70;;
76296;SDS011;65104;52.994;6.552;2024-01-30T12:18:05;7.03;;;3.33;;
76296;SDS011;65104;52.994;6.552;2024-01-30T12:20:34;8.30;;;3.15;;
76296;SDS011;65104;52.994;6.552;2024-01-30T12:23:00;9.02;;;4.10;;
76296;SDS011;65104;52.994;6.552;2024-01-30T12:25:27;6.10;;;2.85;;
76296;SDS011;65104;52.994;6.552;2024-01-30T12:27:54;7.85;;;3.40;;
76296;SDS011;65104;52.994;6.552;2024-01-30T12:30:20;5.55;;;2.60;;
76296;SDS011;65104;52.994;6.552;2024-01-30T12:32:49;6.45;;;2.70;;
76296;SDS011;65104;52.994;6.552;2024-01-30T12:35:17;8.90;;;2.75;;
76296;SDS011;65104;52.994;6.552;2024-01-30T12:40:14;4.63;;;2.13;;
76296;SDS011;65104;52.994;6.552;2024-01-30T12:42:41;4.47;;;2.13;;
76296;SDS011;65104;52.994;6.552;2024-01-30T12:45:08;4.72;;;1.95;;
76296;SDS011;65104;52.994;6.552;2024-01-30T12:47:35;3.55;;;1.63;;
76296;SDS011;65104;52.994;6.552;2024-01-30T12:50:02;4.50;;;1.65;;
76296;SDS011;65104;52.994;6.552;2024-01-30T12:52:29;1.73;;;0.70;;
76296;SDS011;65104;52.994;6.552;2024-01-30T12:54:58;1.75;;;0.65;;
76296;SDS011;65104;52.994;6.552;2024-01-30T12:57:24;0.47;;;0.35;;
76296;SDS011;65104;52.994;6.552;2024-01-30T12:59:51;1.52;;;0.75;;
76296;SDS011;65104;52.994;6.552;2024-01-30T13:02:17;0.73;;;0.47;;
76296;SDS011;65104;52.994;6.552;2024-01-30T13:04:44;0.40;;;0.40;;
76296;SDS011;65104;52.994;6.552;2024-01-30T13:07:11;1.55;;;0.75;;
76296;SDS011;65104;52.994;6.552;2024-01-30T13:09:38;2.03;;;0.60;;
76296;SDS011;65104;52.994;6.552;2024-01-30T13:12:06;1.67;;;0.60;;
76296;SDS011;65104;52.994;6.552;2024-01-30T13:14:33;0.70;;;0.70;;
76296;SDS011;65104;52.994;6.552;2024-01-30T13:17:00;1.20;;;0.80;;
76296;SDS011;65104;52.994;6.552;2024-01-30T13:19:26;0.80;;;0.55;;
76296;SDS011;65104;52.994;6.552;2024-01-30T13:21:53;1.00;;;0.52;;
76296;SDS011;65104;52.994;6.552;2024-01-30T13:24:19;0.73;;;0.73;;
76296;SDS011;65104;52.994;6.552;2024-01-30T13:26:46;0.55;;;0.55;;
76296;SDS011;65104;52.994;6.552;2024-01-30T13:29:15;0.77;;;0.57;;
76296;SDS011;65104;52.994;6.552;2024-01-30T13:31:41;1.25;;;0.70;;
76296;SDS011;65104;52.994;6.552;2024-01-30T13:36:35;1.83;;;1.40;;
76296;SDS011;65104;52.994;6.552;2024-01-30T13:39:02;3.40;;;0.95;;
76296;SDS011;65104;52.994;6.552;2024-01-30T13:41:30;1.58;;;0.80;;
76296;SDS011;65104;52.994;6.552;2024-01-30T13:43:57;0.68;;;0.60;;
76296;SDS011;65104;52.994;6.552;2024-01-30T13:46:25;0.60;;;0.50;;
76296;SDS011;65104;52.994;6.552;2024-01-30T13:48:51;1.65;;;0.50;;
76296;SDS011;65104;52.994;6.552;2024-01-30T13:51:18;0.60;;;0.52;;
76296;SDS011;65104;52.994;6.552;2024-01-30T13:53:45;0.50;;;0.40;;
76296;SDS011;65104;52.994;6.552;2024-01-30T13:56:11;1.60;;;0.80;;
76296;SDS011;65104;52.994;6.552;2024-01-30T13:58:38;1.52;;;0.50;;
76296;SDS011;65104;52.994;6.552;2024-01-30T14:01:05;2.72;;;0.65;;
76296;SDS011;65104;52.994;6.552;2024-01-30T14:03:32;2.00;;;0.88;;
76296;SDS011;65104;52.994;6.552;2024-01-30T14:05:59;0.70;;;0.57;;
76296;SDS011;65104;52.994;6.552;2024-01-30T14:08:26;1.70;;;0.82;;
76296;SDS011;65104;52.994;6.552;2024-01-30T14:10:53;2.67;;;0.70;;
76296;SDS011;65104;52.994;6.552;2024-01-30T14:13:20;1.67;;;0.73;;
76296;SDS011;65104;52.994;6.552;2024-01-30T14:15:47;1.20;;;1.05;;
76296;SDS011;65104;52.994;6.552;2024-01-30T14:18:14;1.55;;;0.95;;
76296;SDS011;65104;52.994;6.552;2024-01-30T14:20:42;0.70;;;0.47;;
76296;SDS011;65104;52.994;6.552;2024-01-30T14:23:09;1.02;;;0.80;;
76296;SDS011;65104;52.994;6.552;2024-01-30T14:25:36;1.83;;;1.45;;
76296;SDS011;65104;52.994;6.552;2024-01-30T14:28:02;1.73;;;1.20;;
76296;SDS011;65104;52.994;6.552;2024-01-30T14:30:29;2.42;;;1.08;;
76296;SDS011;65104;52.994;6.552;2024-01-30T14:32:56;1.33;;;1.02;;
76296;SDS011;65104;52.994;6.552;2024-01-30T14:35:22;1.17;;;1.08;;
76296;SDS011;65104;52.994;6.552;2024-01-30T14:37:50;2.10;;;1.73;;
76296;SDS011;65104;52.994;6.552;2024-01-30T14:40:17;1.30;;;1.20;;
76296;SDS011;65104;52.994;6.552;2024-01-30T14:42:44;1.38;;;1.00;;
76296;SDS011;65104;52.994;6.552;2024-01-30T14:45:11;2.92;;;1.23;;
76296;SDS011;65104;52.994;6.552;2024-01-30T14:47:37;2.40;;;1.70;;
76296;SDS011;65104;52.994;6.552;2024-01-30T14:50:05;3.67;;;1.50;;
76296;SDS011;65104;52.994;6.552;2024-01-30T14:52:32;2.63;;;1.55;;
76296;SDS011;65104;52.994;6.552;2024-01-30T14:57:27;1.52;;;1.35;;
76296;SDS011;65104;52.994;6.552;2024-01-30T14:59:54;3.50;;;1.65;;